Time;durP1;ratioP1;P1;durP2;ratioP2;P2;SDS_P1;SDS_P2;PMS_P1;PMS_P2;Temp;Humidity;BMP_temperature;BMP_pressure;BME280_temperature;BME280_humidity;BME280_pressure;Samples;Min_cycle;Max_cycle;Signal;HPM_P1;HPM_P2
2021/12/23 00:00:27;;;;;;;5.18;4.32;;;;;;;-8.43;38.49;99506.59;3402231;29;20074;-70
2021/12/23 00:02:07;;;;;;;5.95;3.00;;;;;;;-8.43;38.74;99508.34;3401252;29;20036;-70
2021/12/23 00:03:49;;;;;;;4.57;2.88;;;;;;;-8.46;38.74;99499.00;3401716;29;20039;-69
2021/12/23 00:05:31;;;;;;;7.43;3.03;;;;;;;-8.44;38.77;99502.34;3403242;29;20038;-69
2021/12/23 00:07:12;;;;;;;4.80;3.10;;;;;;;-8.41;38.99;99497.00;3403954;29;20040;-69
2021/12/23 00:08:57;;;;;;;13.88;4.43;;;;;;;-8.39;39.04;99500.31;3403859;29;20046;-70
2021/12/23 00:10:38;;;;;;;6.05;3.67;;;;;;;-8.41;38.85;99499.59;3405842;29;20039;-69
2021/12/23 00:12:19;;;;;;;3.88;2.75;;;;;;;-8.40;38.96;99501.25;3405351;29;20068;-70
2021/12/23 00:14:10;;;;;;;7.68;4.35;;;;;;;-8.40;38.93;99493.50;3403274;29;20127;-69
2021/12/23 00:23:21;;;;;;;7.88;4.10;;;;;;;-8.37;38.73;99477.78;3370703;29;20055;-69
2021/12/23 00:23:52;;;;;;;5.35;2.97;;;;;;;-8.34;38.92;99477.66;3400640;29;20098;-69
2021/12/23 00:25:33;;;;;;;6.30;2.88;;;;;;;-8.34;38.57;99469.03;3403261;29;20043;-71
2021/12/23 00:27:14;;;;;;;8.98;2.85;;;;;;;-8.34;38.82;99467.31;3413534;29;20391;-70
2021/12/23 00:28:55;;;;;;;8.90;3.90;;;;;;;-8.31;38.81;99465.47;3401753;29;20040;-69
2021/12/23 00:30:36;;;;;;;7.97;3.38;;;;;;;-8.28;39.02;99465.34;3401479;29;20380;-70
2021/12/23 00:32:16;;;;;;;6.63;3.22;;;;;;;-8.27;38.85;99467.00;3403640;29;20051;-70
2021/12/23 00:33:57;;;;;;;10.68;4.55;;;;;;;-8.27;38.85;99462.66;3403679;29;20446;-70
2021/12/23 00:35:38;;;;;;;5.68;3.50;;;;;;;-8.26;38.97;99460.88;3403411;29;20550;-69
2021/12/23 00:37:19;;;;;;;6.30;3.53;;;;;;;-8.25;38.88;99466.00;3405106;29;20046;-69
2021/12/23 00:39:02;;;;;;;5.85;2.97;;;;;;;-8.23;38.83;99465.91;3405863;29;20466;-69
2021/12/23 00:40:43;;;;;;;6.40;3.33;;;;;;;-8.21;38.79;99466.66;3403610;29;20044;-67
2021/12/23 00:42:24;;;;;;;7.60;3.63;;;;;;;-8.18;39.09;99461.34;3403135;29;20054;-71
2021/12/23 00:44:06;;;;;;;5.97;3.60;;;;;;;-8.18;38.93;99461.34;3403073;29;20039;-71
2021/12/23 00:45:48;;;;;;;7.35;3.53;;;;;;;-8.15;38.88;99462.00;3403602;29;20098;-70
2021/12/23 00:47:29;;;;;;;;;;;;;;;-8.02;39.21;99461.34;3403692;29;20139;-70
2021/12/23 00:49:11;;;;;;;4.90;2.58;;;;;;;-8.03;39.24;99465.66;3403470;29;19969;-70
2021/12/23 00:50:53;;;;;;;3.85;2.78;;;;;;;-8.03;38.87;99463.06;3404346;29;20067;-69
2021/12/23 00:52:38;;;;;;;4.32;3.10;;;;;;;-8.02;38.96;99467.34;3403266;29;20066;-70
2021/12/23 00:54:18;;;;;;;4.60;2.47;;;;;;;-8.03;39.12;99460.50;3403248;29;20036;-71
2021/12/23 00:56:01;;;;;;;5.05;3.15;;;;;;;-8.04;39.13;99461.41;3403276;29;20063;-72
2021/12/23 00:57:42;;;;;;;6.10;3.13;;;;;;;-8.03;39.09;99463.06;3390349;29;20389;-72
2021/12/23 00:59:23;;;;;;;3.45;2.30;;;;;;;-8.05;39.26;99462.34;3386373;29;20051;-71
2021/12/23 01:01:05;;;;;;;4.40;2.75;;;;;;;-8.04;39.26;99461.41;3400398;29;20589;-70
2021/12/23 01:02:48;;;;;;;4.85;2.38;;;;;;;-8.05;39.07;99462.34;3403175;29;20044;-70
2021/12/23 01:04:31;;;;;;;7.50;3.47;;;;;;;-8.03;39.51;99457.91;3403128;29;20046;-70
2021/12/23 01:06:11;;;;;;;;;;;;;;;-7.94;39.40;99460.00;3403642;29;20410;-70
2021/12/23 01:07:53;;;;;;;2.75;2.33;;;;;;;-7.95;39.30;99460.94;3403015;29;19923;-71
2021/12/23 01:09:33;;;;;;;5.03;2.25;;;;;;;-7.93;39.21;99458.25;3400426;29;20154;-72
2021/12/23 01:11:14;;;;;;;4.35;2.30;;;;;;;-7.93;39.37;99456.50;3401834;29;20052;-71
2021/12/23 01:13:01;;;;;;;6.10;2.95;;;;;;;-7.95;39.48;99453.19;3402251;29;20036;-72
2021/12/23 01:14:55;;;;;;;3.55;2.42;;;;;;;-7.91;39.41;99459.84;3403266;29;20039;-73
2021/12/23 01:16:49;;;;;;;6.45;3.15;;;;;;;-7.90;39.40;99455.50;3402260;29;20055;-72
2021/12/23 01:18:44;;;;;;;3.80;2.65;;;;;;;-7.88;39.67;99458.00;3403192;29;20043;-72
2021/12/23 01:20:31;;;;;;;7.10;2.50;;;;;;;-7.91;39.51;99457.25;3403199;29;20127;-71
2021/12/23 01:22:12;;;;;;;4.32;2.75;;;;;;;-7.87;39.59;99454.50;3403911;29;20047;-72
2021/12/23 01:23:56;;;;;;;3.03;2.28;;;;;;;-7.84;39.54;99456.94;3403528;29;20408;-72
2021/12/23 01:25:40;;;;;;;3.28;2.17;;;;;;;-7.87;39.55;99451.91;3403460;29;20032;-70
2021/12/23 01:27:22;;;;;;;7.35;2.47;;;;;;;-7.85;39.62;99452.66;3403284;29;20043;-71
2021/12/23 01:29:03;;;;;;;;;;;;;;;-7.76;39.66;99454.75;3403789;29;20046;-71
2021/12/23 01:30:44;;;;;;;5.90;2.95;;;;;;;-7.81;39.77;99451.59;3413525;29;19922;-72
2021/12/23 01:32:24;;;;;;;5.00;2.38;;;;;;;-7.81;39.36;99449.81;3415635;29;20064;-69
2021/12/23 01:34:06;;;;;;;4.88;2.65;;;;;;;-7.80;39.39;99450.66;3405694;29;20040;-71
2021/12/23 01:35:50;;;;;;;3.67;2.35;;;;;;;-7.80;39.67;99459.25;3403586;29;20047;-70
2021/12/23 01:37:30;;;;;;;5.38;2.47;;;;;;;-7.79;39.70;99453.16;3407968;29;20063;-68
2021/12/23 01:39:14;;;;;;;6.15;3.65;;;;;;;-7.79;39.66;99448.00;3408618;29;20122;-70
2021/12/23 01:40:54;;;;;;;5.43;2.25;;;;;;;-7.78;39.65;99452.25;3403090;29;20055;-69
2021/12/23 01:42:35;;;;;;;3.95;2.60;;;;;;;-7.78;39.69;99446.25;3403021;29;20055;-70
2021/12/23 01:44:16;;;;;;;5.40;2.78;;;;;;;-7.79;39.85;99447.16;3403130;29;20047;-70
2021/12/23 01:45:56;;;;;;;2.95;2.35;;;;;;;-7.76;39.84;99447.81;3403316;29;20062;-69
2021/12/23 01:47:37;;;;;;;4.60;2.60;;;;;;;-7.78;39.77;99447.06;3403247;29;20043;-70
2021/12/23 01:49:18;;;;;;;3.40;2.05;;;;;;;-7.75;39.89;99448.66;3405666;29;20044;-71
2021/12/23 01:51:01;;;;;;;3.92;2.47;;;;;;;-7.77;39.76;99441.00;3403584;29;20063;-70
2021/12/23 01:52:42;;;;;;;3.60;2.42;;;;;;;-7.74;40.16;99446.00;3402362;29;20047;-70
2021/12/23 01:54:23;;;;;;;3.60;2.50;;;;;;;-7.72;40.01;99445.88;3402762;29;20036;-70
2021/12/23 01:56:04;;;;;;;6.68;2.47;;;;;;;-7.72;40.12;99439.00;3402496;29;20415;-71
2021/12/23 01:57:45;;;;;;;8.00;2.75;;;;;;;-7.72;39.91;99439.00;3402423;29;20096;-71
2021/12/23 01:59:26;;;;;;;5.47;2.63;;;;;;;-7.68;39.86;99452.56;3402899;29;20134;-70
2021/12/23 02:01:11;;;;;;;3.08;2.00;;;;;;;-7.67;40.29;99456.81;3407914;29;20646;-71
2021/12/23 02:02:54;;;;;;;4.25;2.33;;;;;;;-7.65;40.22;99449.81;3401884;29;20050;-71
2021/12/23 02:04:38;;;;;;;4.22;2.28;;;;;;;-7.63;40.13;99453.16;3402170;29;20431;-70
2021/12/23 02:06:20;;;;;;;4.63;2.60;;;;;;;-7.57;40.35;99457.16;3402182;29;20055;-69
2021/12/23 02:08:01;;;;;;;;;;;;;;;-7.46;40.23;99453.06;3403854;29;20039;-69
2021/12/23 02:09:41;;;;;;;6.22;3.03;;;;;;;-7.49;40.08;99449.78;3402454;29;19950;-72
2021/12/23 02:11:22;;;;;;;4.93;1.90;;;;;;;-7.50;40.25;99438.59;3403046;29;20084;-71
2021/12/23 02:13:03;;;;;;;5.35;2.97;;;;;;;-7.51;40.09;99447.28;3401853;29;20046;-71
2021/12/23 02:14:44;;;;;;;3.75;2.13;;;;;;;-7.53;39.90;99445.72;3402710;29;20050;-70
2021/12/23 02:16:25;;;;;;;3.38;2.45;;;;;;;-7.52;40.14;99445.63;3402814;29;20452;-70
2021/12/23 02:18:06;;;;;;;4.97;2.30;;;;;;;-7.50;40.24;99448.13;3403022;29;20055;-72
2021/12/23 02:19:52;;;;;;;3.08;2.00;;;;;;;-7.49;40.40;99437.66;3402982;29;20506;-72
2021/12/23 02:21:33;;;;;;;3.20;1.75;;;;;;;-7.46;40.30;99440.09;3405926;29;20039;-73
2021/12/23 02:23:15;;;;;;;;;;;;;;;-7.36;40.33;99435.22;3402531;29;20044;-70
2021/12/23 02:24:56;;;;;;;3.92;2.25;;;;;;;-7.38;40.16;99446.59;3400997;29;19923;-72
2021/12/23 02:26:39;;;;;;;4.18;2.17;;;;;;;-7.37;40.44;99437.91;3401673;29;20043;-69
2021/12/23 02:28:22;;;;;;;3.40;2.15;;;;;;;-7.37;40.28;99440.50;3410832;28;20039;-70
2021/12/23 02:30:07;;;;;;;6.50;3.08;;;;;;;-7.35;40.56;99430.91;3405767;29;20044;-70
2021/12/23 02:31:50;;;;;;;3.10;1.77;;;;;;;-7.35;40.45;99436.09;3401275;29;20077;-70
2021/12/23 02:33:34;;;;;;;6.85;2.03;;;;;;;-7.31;40.19;99432.38;3401823;29;20035;-70
2021/12/23 02:35:18;;;;;;;2.25;1.85;;;;;;;-7.31;40.26;99428.03;3401952;29;20039;-69
2021/12/23 02:37:00;;;;;;;4.32;2.28;;;;;;;-7.29;40.63;99430.53;3401066;29;20423;-71
2021/12/23 02:38:41;;;;;;;2.03;1.83;;;;;;;-7.30;40.53;99423.72;3397640;29;20087;-71
2021/12/23 02:40:30;;;;;;;4.15;2.35;;;;;;;-7.27;40.60;99434.72;3401898;29;20035;-70
2021/12/23 02:42:11;;;;;;;4.22;2.78;;;;;;;-7.27;40.70;99429.53;3402000;29;20067;-69
2021/12/23 02:43:52;;;;;;;3.58;2.42;;;;;;;-7.24;40.66;99433.69;3402137;29;20051;-69
2021/12/23 02:45:33;;;;;;;2.25;1.85;;;;;;;-7.23;40.60;99430.19;3401995;29;20043;-68
2021/12/23 02:47:18;;;;;;;4.07;2.53;;;;;;;-7.22;40.71;99429.28;3402773;29;20404;-69
2021/12/23 02:48:59;;;;;;;6.38;2.05;;;;;;;-7.19;40.57;99436.84;3403866;29;20062;-69
2021/12/23 02:50:49;;;;;;;3.55;2.30;;;;;;;-7.16;40.80;99434.09;3404008;29;20055;-70
2021/12/23 02:52:31;;;;;;;5.68;2.13;;;;;;;-7.17;40.70;99435.00;3403705;29;20047;-69
2021/12/23 02:54:11;;;;;;;3.22;1.80;;;;;;;-7.14;40.65;99440.00;3403755;29;20040;-69
2021/12/23 02:56:00;;;;;;;3.58;2.03;;;;;;;-7.09;40.89;99438.00;3401890;29;20630;-70
2021/12/23 02:57:42;;;;;;;3.35;1.75;;;;;;;-7.08;40.94;99433.63;3401568;29;20411;-70
2021/12/23 02:59:24;;;;;;;4.38;2.33;;;;;;;-7.06;40.84;99440.41;3401897;29;20043;-69
2021/12/23 03:01:08;;;;;;;3.80;1.95;;;;;;;-7.06;40.77;99435.22;3401754;29;20039;-69
2021/12/23 03:02:50;;;;;;;3.17;1.90;;;;;;;-7.05;40.89;99444.66;3401239;29;20503;-69
2021/12/23 03:04:32;;;;;;;;;;;;;;;-6.95;40.86;99441.53;3402382;29;20039;-69
2021/12/23 03:06:18;;;;;;;3.30;2.00;;;;;;;-6.99;40.76;99429.69;3401622;29;20402;-68
2021/12/23 03:08:01;;;;;;;6.43;2.83;;;;;;;-6.97;40.80;99435.59;3402848;29;20043;-71
2021/12/23 03:09:46;;;;;;;2.92;2.20;;;;;;;-6.95;40.93;99438.94;3401881;29;20084;-71
2021/12/23 03:11:29;;;;;;;3.20;2.00;;;;;;;-6.94;40.80;99438.00;3397916;29;20086;-70
2021/12/23 03:13:11;;;;;;;6.35;2.70;;;;;;;-6.90;40.95;99437.75;3401484;29;20131;-70
2021/12/23 03:14:52;;;;;;;4.00;2.05;;;;;;;-6.89;41.19;99429.06;3401726;29;20044;-69
2021/12/23 03:16:35;;;;;;;9.63;3.08;;;;;;;-6.86;41.27;99436.66;3401552;29;20051;-71
2021/12/23 03:18:17;;;;;;;2.88;2.00;;;;;;;-6.83;41.18;99427.84;3401620;29;20415;-68
2021/12/23 03:19:59;;;;;;;4.90;2.35;;;;;;;-6.81;41.18;99423.44;3413047;29;20086;-71
2021/12/23 03:21:40;;;;;;;3.47;1.88;;;;;;;-6.76;41.14;99424.00;3404536;29;20166;-70
2021/12/23 03:23:23;;;;;;;8.88;4.70;;;;;;;-6.77;41.21;99422.31;3401667;29;20039;-70
2021/12/23 03:25:04;;;;;;;4.90;2.08;;;;;;;-6.72;41.18;99425.44;3403453;29;20065;-69
2021/12/23 03:26:47;;;;;;;4.50;1.92;;;;;;;-6.70;41.41;99426.19;3401648;29;20044;-72
2021/12/23 03:28:28;;;;;;;4.03;2.20;;;;;;;-6.71;41.23;99421.09;3402159;29;20048;-71
2021/12/23 03:30:11;;;;;;;2.60;2.00;;;;;;;-6.68;41.27;99424.34;3401486;29;20039;-71
2021/12/23 03:31:53;;;;;;;4.30;1.83;;;;;;;-6.67;41.31;99422.59;3413757;29;20415;-71
2021/12/23 03:33:35;;;;;;;3.92;2.30;;;;;;;-6.66;41.40;99414.75;3403754;29;20418;-70
2021/12/23 03:35:16;;;;;;;3.40;2.07;;;;;;;-6.66;41.52;99419.06;3401526;29;20467;-70
2021/12/23 03:36:58;;;;;;;5.47;2.75;;;;;;;-6.67;41.18;99402.69;3401561;29;20325;-72
2021/12/23 03:38:39;;;;;;;;;;;;;;;-6.52;41.50;99405.28;3401786;29;20198;-71
2021/12/23 03:40:21;;;;;;;3.47;2.20;;;;;;;-6.57;41.27;99415.09;3402509;29;19930;-71
2021/12/23 03:42:02;;;;;;;;;;;;;;;-6.50;41.32;99404.28;3405214;29;20048;-68
2021/12/23 03:43:43;;;;;;;4.53;1.77;;;;;;;-6.53;41.17;99411.38;3414669;29;19922;-73
2021/12/23 03:45:23;;;;;;;3.28;2.22;;;;;;;-6.54;41.24;99401.94;3403825;29;20083;-71
2021/12/23 03:47:06;;;;;;;3.03;1.80;;;;;;;-6.55;41.47;99406.31;3404520;29;20416;-70
2021/12/23 03:48:47;;;;;;;4.68;1.88;;;;;;;-6.55;41.88;99410.66;3413617;29;20061;-71
2021/12/23 03:50:27;;;;;;;5.07;2.75;;;;;;;-6.53;41.60;99401.00;3417347;29;20482;-72
2021/12/23 03:52:08;;;;;;;6.07;2.97;;;;;;;-6.52;41.62;99402.69;3417854;29;20054;-72
2021/12/23 03:53:49;;;;;;;5.35;2.70;;;;;;;-6.51;41.92;99402.59;3417956;29;20039;-72
2021/12/23 03:55:30;;;;;;;5.05;2.63;;;;;;;-6.49;41.65;99402.50;3416877;29;20331;-72
2021/12/23 03:57:11;;;;;;;2.58;2.22;;;;;;;-6.45;41.92;99401.41;3416833;28;20055;-71
2021/12/23 03:58:53;;;;;;;4.32;2.25;;;;;;;-6.41;42.12;99405.47;3410850;29;20046;-71
2021/12/23 04:00:34;;;;;;;3.50;2.05;;;;;;;-6.38;41.88;99407.84;3406475;29;20047;-70
2021/12/23 04:02:15;;;;;;;4.68;2.63;;;;;;;-6.34;42.09;99405.94;3414303;29;20041;-71
2021/12/23 04:03:57;;;;;;;5.85;2.42;;;;;;;-6.33;41.80;99399.81;3417914;29;20051;-71
2021/12/23 04:05:37;;;;;;;3.58;2.42;;;;;;;-6.31;41.82;99406.56;3417759;29;20527;-71
2021/12/23 04:07:18;;;;;;;6.25;2.67;;;;;;;-6.28;42.06;99408.97;3404514;29;20056;-69
2021/12/23 04:09:00;;;;;;;4.65;2.10;;;;;;;-6.28;42.02;99398.59;3400773;29;20035;-70
2021/12/23 04:10:41;;;;;;;6.38;2.33;;;;;;;-6.25;42.08;99398.38;3413186;29;20054;-70
2021/12/23 04:12:22;;;;;;;2.80;2.13;;;;;;;-6.22;41.76;99403.41;3394671;29;20649;-69
2021/12/23 04:14:05;;;;;;;4.40;1.92;;;;;;;-6.22;42.05;99399.97;3401894;29;20099;-71
2021/12/23 04:15:45;;;;;;;5.63;2.47;;;;;;;-6.19;42.10;99398.03;3402516;29;20044;-72
2021/12/23 04:17:26;;;;;;;4.97;1.90;;;;;;;-6.18;42.23;99398.84;3402074;29;20054;-72
2021/12/23 04:19:09;;;;;;;2.75;2.25;;;;;;;-6.16;42.07;99400.41;3405198;29;20134;-70
2021/12/23 04:20:56;;;;;;;4.22;2.35;;;;;;;-6.19;42.15;99392.84;3406410;29;20039;-69
2021/12/23 04:22:36;;;;;;;4.22;2.03;;;;;;;-6.13;42.36;99390.78;3406656;29;20051;-70
2021/12/23 04:24:17;;;;;;;2.10;1.92;;;;;;;-6.12;42.34;99392.44;3404138;29;20040;-70
2021/12/23 04:25:58;;;;;;;2.53;2.00;;;;;;;-6.11;42.48;99394.94;3404292;29;20068;-71
2021/12/23 04:27:39;;;;;;;3.80;2.20;;;;;;;-6.08;42.42;99391.34;3404223;29;20048;-69
2021/12/23 04:29:20;;;;;;;5.37;2.40;;;;;;;-6.08;42.26;99386.16;3404905;29;20103;-70
2021/12/23 04:31:01;;;;;;;2.88;1.63;;;;;;;-6.05;42.46;99391.97;3404439;29;20126;-70
2021/12/23 04:32:42;;;;;;;5.32;2.17;;;;;;;-6.02;42.29;99390.94;3404275;29;20496;-70
2021/12/23 04:34:23;;;;;;;2.40;1.73;;;;;;;-5.99;42.43;99395.94;3404227;29;20439;-71
2021/12/23 04:36:04;;;;;;;3.60;2.92;;;;;;;-5.98;42.55;99388.06;3410162;29;20294;-71
2021/12/23 04:37:44;;;;;;;4.13;2.35;;;;;;;-5.96;42.51;99394.00;3414439;28;20437;-69
2021/12/23 04:39:25;;;;;;;6.13;1.73;;;;;;;-5.95;42.69;99389.63;3405015;29;20046;-71
2021/12/23 04:41:06;;;;;;;4.22;2.85;;;;;;;-5.97;42.69;99404.44;3404013;29;20043;-71
2021/12/23 04:42:47;;;;;;;3.55;1.85;;;;;;;-5.97;42.61;99396.66;3403052;29;20039;-70
2021/12/23 04:44:27;;;;;;;5.30;2.53;;;;;;;-5.93;42.66;99406.72;3406723;29;20046;-71
2021/12/23 04:46:09;;;;;;;4.05;2.47;;;;;;;-5.91;42.47;99401.47;3404313;29;20073;-72
2021/12/23 04:47:50;;;;;;;10.77;2.22;;;;;;;-5.89;42.59;99412.53;3404566;29;20051;-70
2021/12/23 04:49:31;;;;;;;3.85;2.83;;;;;;;-5.89;42.77;99404.75;3403629;29;20040;-70
2021/12/23 04:51:12;;;;;;;5.53;2.17;;;;;;;-5.88;42.83;99406.44;3413269;28;20503;-71
2021/12/23 04:52:53;;;;;;;3.72;2.63;;;;;;;-5.85;42.67;99414.03;3411704;28;20082;-71
2021/12/23 04:54:33;;;;;;;3.33;2.38;;;;;;;-5.91;42.61;99406.66;3402732;29;20040;-71
2021/12/23 04:56:15;;;;;;;5.00;2.55;;;;;;;-5.87;42.63;99418.47;3413293;29;20533;-71
2021/12/23 04:57:56;;;;;;;4.55;3.50;;;;;;;-5.88;42.68;99411.63;3406174;29;20443;-73
2021/12/23 04:59:37;;;;;;;4.32;2.67;;;;;;;-5.88;42.85;99410.81;3404570;29;20043;-73
2021/12/23 05:01:27;;;;;;;5.65;3.47;;;;;;;-5.87;43.05;99417.66;3403883;29;20047;-72
2021/12/23 05:03:08;;;;;;;3.63;2.15;;;;;;;-5.85;42.85;99421.00;3403648;29;20039;-71
2021/12/23 05:04:52;;;;;;;3.88;1.95;;;;;;;-5.86;42.95;99414.13;3404047;29;20044;-68
2021/12/23 05:06:33;;;;;;;3.42;2.80;;;;;;;-5.83;42.91;99430.34;3416844;28;20047;-71
2021/12/23 05:08:14;;;;;;;3.42;2.28;;;;;;;-5.82;43.10;99425.97;3416798;29;20047;-70
2021/12/23 05:09:55;;;;;;;4.15;2.72;;;;;;;-5.80;42.87;99429.31;3407429;29;20679;-69
2021/12/23 05:11:35;;;;;;;7.30;2.75;;;;;;;-5.77;43.00;99435.13;3403679;29;20044;-69
2021/12/23 05:13:16;;;;;;;2.70;2.08;;;;;;;-5.74;43.30;99429.75;3403945;29;20529;-69
2021/12/23 05:14:57;;;;;;;5.55;1.98;;;;;;;-5.71;43.00;99433.91;3402612;29;20067;-73
2021/12/23 05:16:38;;;;;;;5.60;3.33;;;;;;;-5.68;43.20;99432.88;3413046;29;20070;-76
2021/12/23 05:18:18;;;;;;;4.57;3.08;;;;;;;-5.68;42.93;99432.88;3406003;29;20459;-73
2021/12/23 05:19:59;;;;;;;3.35;2.13;;;;;;;-5.66;43.01;99433.63;3396795;29;20086;-74
2021/12/23 05:21:40;;;;;;;4.10;2.83;;;;;;;-5.70;43.21;99426.03;3413823;29;20039;-75
2021/12/23 05:23:20;;;;;;;4.20;2.65;;;;;;;-5.66;43.06;99423.22;3429252;28;20062;-77
2021/12/23 05:25:02;;;;;;;4.10;2.45;;;;;;;-5.66;42.98;99431.84;3402741;29;20040;-78
2021/12/23 05:26:42;;;;;;;3.40;2.40;;;;;;;-5.67;42.99;99429.38;3406084;28;20039;-75
2021/12/23 05:28:23;;;;;;;4.32;2.97;;;;;;;-5.67;43.17;99434.56;3410440;29;20486;-75
2021/12/23 05:30:08;;;;;;;5.10;3.25;;;;;;;-5.70;43.30;99433.81;3417302;29;20422;-76
2021/12/23 05:31:49;;;;;;;5.75;3.22;;;;;;;-5.66;43.41;99441.41;3398595;29;20483;-78
2021/12/23 05:33:30;;;;;;;6.93;3.30;;;;;;;-5.65;43.39;99438.72;3413337;29;20137;-78
2021/12/23 05:35:13;;;;;;;7.10;3.67;;;;;;;-5.64;43.28;99439.53;3416567;29;20047;-76
2021/12/23 05:36:54;;;;;;;3.85;2.60;;;;;;;-5.64;43.17;99440.38;3428640;28;20153;-74
2021/12/23 05:38:34;;;;;;;6.65;2.90;;;;;;;-5.61;43.34;99434.16;3415618;28;20064;-77
2021/12/23 05:40:18;;;;;;;5.43;2.80;;;;;;;-5.59;43.58;99442.69;3403391;29;20047;-75
2021/12/23 05:41:59;;;;;;;3.67;3.08;;;;;;;-5.56;43.51;99445.06;3404499;29;20042;-76
2021/12/23 05:43:40;;;;;;;5.47;3.05;;;;;;;-5.54;43.38;99438.03;3415174;29;20382;-73
2021/12/23 05:45:21;;;;;;;4.20;2.75;;;;;;;-5.56;43.67;99435.53;3405484;29;20048;-73
2021/12/23 05:47:03;;;;;;;5.25;3.53;;;;;;;-5.53;43.60;99435.31;3411587;28;20130;-74
2021/12/23 05:48:43;;;;;;;3.30;2.40;;;;;;;-5.53;43.47;99437.09;3416416;29;20046;-76
2021/12/23 05:50:25;;;;;;;5.40;2.90;;;;;;;-5.53;43.29;99442.28;3428526;28;20118;-78
2021/12/23 05:52:06;;;;;;;5.93;3.20;;;;;;;-5.51;43.57;99441.25;3415241;28;20031;-77
2021/12/23 05:53:46;;;;;;;5.32;3.08;;;;;;;-5.50;43.57;99447.28;3408323;29;20483;-74
2021/12/23 05:55:27;;;;;;;4.72;3.17;;;;;;;-5.49;43.59;99443.75;3402613;29;20054;-77
2021/12/23 05:57:08;;;;;;;3.70;2.22;;;;;;;-5.48;43.58;99442.81;3403069;29;20052;-73
2021/12/23 05:58:49;;;;;;;6.85;3.15;;;;;;;-5.46;43.58;99443.56;3416343;28;20532;-72
2021/12/23 06:00:32;;;;;;;8.50;3.40;;;;;;;-5.46;43.73;99433.16;3405638;29;20094;-73
2021/12/23 06:02:13;;;;;;;3.95;2.88;;;;;;;-5.43;43.76;99439.94;3404951;29;20131;-75
2021/12/23 06:03:53;;;;;;;3.72;3.17;;;;;;;-5.43;43.71;99438.16;3415613;28;20423;-72
2021/12/23 06:05:34;;;;;;;7.53;3.40;;;;;;;-5.41;43.79;99444.09;3416095;29;20043;-73
2021/12/23 06:07:14;;;;;;;4.20;3.40;;;;;;;-5.40;43.88;99440.56;3407814;28;20043;-73
2021/12/23 06:08:55;;;;;;;5.72;2.80;;;;;;;-5.38;44.01;99436.09;3416083;29;20066;-72
2021/12/23 06:10:36;;;;;;;7.43;3.42;;;;;;;-5.35;44.05;99441.09;3414923;29;20094;-72
2021/12/23 06:12:17;;;;;;;6.28;3.15;;;;;;;-5.32;44.01;99440.91;3415193;29;20483;-73
2021/12/23 06:13:57;;;;;;;6.93;3.45;;;;;;;-5.31;43.92;99439.97;3403205;29;20051;-72
2021/12/23 06:15:38;;;;;;;4.72;2.80;;;;;;;-5.26;43.86;99445.69;3401728;29;20040;-73
2021/12/23 06:17:19;;;;;;;4.18;3.33;;;;;;;-5.23;44.08;99449.03;3406337;29;20494;-72
2021/12/23 06:19:00;;;;;;;10.13;3.03;;;;;;;-5.23;43.89;99444.66;3404829;29;20044;-75
2021/12/23 06:20:40;;;;;;;4.35;2.50;;;;;;;-5.19;43.91;99450.47;3410573;29;20047;-73
2021/12/23 06:22:21;;;;;;;6.72;2.63;;;;;;;-5.18;44.05;99446.97;3406955;28;20122;-74
2021/12/23 06:24:05;;;;;;;6.45;3.30;;;;;;;-5.14;44.18;99456.19;3402678;29;20158;-73
2021/12/23 06:25:46;;;;;;;4.03;2.95;;;;;;;-5.10;44.01;99444.69;3403766;29;20067;-73
2021/12/23 06:27:26;;;;;;;4.57;2.92;;;;;;;-5.08;44.14;99442.81;3402602;29;20048;-74
2021/12/23 06:29:07;;;;;;;4.60;2.83;;;;;;;-5.05;44.17;99443.44;3405347;29;20055;-74
2021/12/23 06:30:48;;;;;;;9.43;3.55;;;;;;;-5.01;43.82;99444.06;3415520;29;20451;-74
2021/12/23 06:32:28;;;;;;;4.18;2.40;;;;;;;-5.00;44.06;99445.75;3413329;29;20039;-73
2021/12/23 06:34:09;;;;;;;6.28;2.97;;;;;;;-4.99;44.24;99447.41;3414261;29;20382;-73
2021/12/23 06:35:50;;;;;;;5.72;3.40;;;;;;;-5.01;44.10;99444.06;3414625;29;20063;-74
2021/12/23 06:37:31;;;;;;;6.43;3.33;;;;;;;-4.96;44.29;99446.38;3407669;29;20051;-74
2021/12/23 06:39:12;;;;;;;5.32;2.85;;;;;;;-4.96;44.21;99449.78;3415548;29;20175;-73
2021/12/23 06:40:52;;;;;;;4.90;2.97;;;;;;;-4.93;44.18;99449.59;3403984;29;20047;-75
2021/12/23 06:42:33;;;;;;;8.48;3.38;;;;;;;-4.94;44.07;99444.50;3388755;29;20052;-72
2021/12/23 06:44:15;;;;;;;4.35;2.83;;;;;;;-4.88;44.37;99452.72;3410760;29;20178;-74
2021/12/23 06:45:56;;;;;;;7.95;3.65;;;;;;;-4.86;43.97;99453.44;3403341;29;20512;-73
2021/12/23 06:47:38;;;;;;;3.63;2.90;;;;;;;-4.80;44.08;99451.38;3402270;29;20066;-72
2021/12/23 06:49:18;;;;;;;17.50;3.67;;;;;;;-4.77;44.08;99453.78;3402218;29;20043;-74
2021/12/23 06:51:00;;;;;;;6.68;3.08;;;;;;;-4.78;44.39;99437.34;3402336;29;20452;-73
2021/12/23 06:52:41;;;;;;;4.25;2.53;;;;;;;-4.72;44.41;99438.72;3402238;29;20102;-73
2021/12/23 06:54:21;;;;;;;7.00;3.35;;;;;;;-4.71;44.40;99440.38;3389761;29;20147;-72
2021/12/23 06:56:03;;;;;;;4.13;2.95;;;;;;;-4.67;44.21;99436.63;3407432;29;20031;-73
2021/12/23 06:57:44;;;;;;;5.40;3.67;;;;;;;-4.64;44.21;99426.84;3403204;29;20603;-72
2021/12/23 06:59:25;;;;;;;4.40;2.58;;;;;;;-4.61;44.15;99431.81;3402409;29;20044;-73
2021/12/23 07:01:06;;;;;;;4.75;3.10;;;;;;;-4.58;44.35;99429.97;3402575;29;20050;-72
2021/12/23 07:02:47;;;;;;;3.83;3.13;;;;;;;-4.57;44.65;99432.44;3402319;29;20039;-72
2021/12/23 07:04:31;;;;;;;4.68;3.03;;;;;;;-4.54;44.43;99431.41;3400857;29;20044;-72
2021/12/23 07:06:18;;;;;;;5.88;3.13;;;;;;;-4.53;44.29;99425.28;3401913;29;20043;-73
2021/12/23 07:08:13;;;;;;;7.95;3.45;;;;;;;-4.51;44.33;99431.22;3401975;29;20150;-73
2021/12/23 07:09:54;;;;;;;6.47;2.97;;;;;;;-4.50;44.42;99436.28;3401807;29;20131;-73
2021/12/23 07:11:35;;;;;;;4.57;3.00;;;;;;;-4.49;44.21;99424.97;3413788;29;20043;-73
2021/12/23 07:13:16;;;;;;;6.80;2.72;;;;;;;-4.49;44.24;99424.13;3414802;29;20047;-73
2021/12/23 07:14:56;;;;;;;5.18;3.00;;;;;;;-4.43;44.25;99427.13;3414214;29;20039;-72
2021/12/23 07:16:39;;;;;;;4.20;3.15;;;;;;;-4.40;44.21;99426.09;3411933;29;20045;-72
2021/12/23 07:18:20;;;;;;;6.50;3.58;;;;;;;-4.38;44.21;99398.22;3403210;29;20039;-72
2021/12/23 07:20:02;;;;;;;3.60;3.17;;;;;;;-4.32;44.33;99420.38;3402838;29;20110;-73
2021/12/23 07:21:42;;;;;;;4.32;3.45;;;;;;;-4.30;44.15;99418.50;3408002;29;20575;-72
2021/12/23 07:23:23;;;;;;;6.15;3.42;;;;;;;-4.27;44.23;99415.66;3414976;29;20050;-74
2021/12/23 07:25:05;;;;;;;8.05;3.83;;;;;;;-4.24;44.24;99418.06;3413631;29;20043;-72
2021/12/23 07:26:45;;;;;;;9.80;3.72;;;;;;;-4.19;44.18;99429.78;3401783;29;20418;-74
2021/12/23 07:28:26;;;;;;;6.95;3.90;;;;;;;-4.13;44.44;99425.97;3401960;29;20043;-73
2021/12/23 07:30:08;;;;;;;7.32;3.53;;;;;;;-4.08;44.22;99429.06;3402228;29;20079;-74
2021/12/23 07:31:49;;;;;;;6.80;3.72;;;;;;;-4.04;44.32;99420.09;3401597;29;20043;-73
2021/12/23 07:33:30;;;;;;;7.45;3.85;;;;;;;-4.00;44.24;99425.91;3401869;29;20570;-73
2021/12/23 07:35:11;;;;;;;6.88;3.63;;;;;;;-3.97;44.23;99426.53;3402018;29;20051;-74
2021/12/23 07:36:51;;;;;;;8.45;4.60;;;;;;;-3.93;44.50;99432.34;3402873;28;20035;-74
2021/12/23 07:38:33;;;;;;;5.50;3.65;;;;;;;-3.90;44.48;99426.09;3404818;29;20431;-73
2021/12/23 07:40:16;;;;;;;4.43;3.65;;;;;;;-3.84;44.18;99425.66;3401758;29;20130;-72
2021/12/23 07:41:57;;;;;;;5.70;3.42;;;;;;;-3.79;44.20;99431.38;3408576;29;20477;-74
2021/12/23 07:45:20;;;;;;;4.88;3.17;;;;;;;-3.79;44.23;99413.16;3399943;29;20144;-73
2021/12/23 07:47:01;;;;;;;6.47;3.33;;;;;;;-3.71;44.36;99434.25;3401903;29;20048;-75
2021/12/23 07:48:41;;;;;;;5.97;3.35;;;;;;;-3.70;44.30;99425.50;3401814;29;20048;-74
2021/12/23 07:50:23;;;;;;;8.70;3.08;;;;;;;-3.69;44.20;99427.16;3401581;29;20067;-75
2021/12/23 07:52:03;;;;;;;5.50;4.18;;;;;;;-3.67;44.31;99427.88;3387509;29;20148;-73
2021/12/23 07:53:44;;;;;;;7.68;3.58;;;;;;;-3.65;44.33;99433.81;3400216;29;20106;-74
2021/12/23 07:55:25;;;;;;;7.28;4.25;;;;;;;-3.67;44.17;99420.06;3411573;29;20478;-73
2021/12/23 07:57:06;;;;;;;8.48;4.18;;;;;;;-3.64;43.92;99422.47;3409964;29;20578;-73
2021/12/23 07:58:47;;;;;;;6.50;3.75;;;;;;;-3.63;43.97;99416.31;3401261;29;20532;-73
2021/12/23 08:00:29;;;;;;;7.25;3.75;;;;;;;-3.59;44.24;99417.75;3401581;29;20156;-72
2021/12/23 08:02:09;;;;;;;;;;;;;;;-3.44;44.14;99414.97;3390478;29;20044;-73
2021/12/23 08:03:50;;;;;;;2.78;2.45;;;;;;;-3.44;43.92;99417.56;3401641;29;20358;-74
2021/12/23 08:05:31;;;;;;;5.97;3.17;;;;;;;-3.41;43.62;99422.53;3401085;29;20562;-73
2021/12/23 08:07:12;;;;;;;6.82;3.42;;;;;;;-3.38;43.85;99419.72;3397348;29;20036;-72
2021/12/23 08:08:53;;;;;;;5.30;3.72;;;;;;;-3.36;44.10;99416.03;3401475;29;20530;-73